Time;durP1;ratioP1;P1;durP2;ratioP2;P2;SDS_P1;SDS_P2;PMS_P1;PMS_P2;Temp;Humidity;BMP_temperature;BMP_pressure;BME280_temperature;BME280_humidity;BME280_pressure;Samples;Min_cycle;Max_cycle;Signal;HPM_P1;HPM_P2
2022/10/30 00:02:09;;;;;;;6.72;3.53;;;;;;;-8.73;75.15;96909.44;6157027;28;20097;-69
2022/10/30 00:05:13;;;;;;;9.20;4.15;;;;;;;-8.81;74.97;96906.81;6153283;28;20051;-69
2022/10/30 00:08:26;;;;;;;10.30;3.90;;;;;;;-8.74;75.39;96917.94;6154357;28;20063;-71
2022/10/30 00:11:30;;;;;;;7.97;3.95;;;;;;;-8.74;75.04;96908.59;6159221;28;20101;-70
2022/10/30 00:14:34;;;;;;;8.50;3.78;;;;;;;-8.70;75.27;96900.13;6143917;28;20043;-71
2022/10/30 00:17:41;;;;;;;9.50;4.00;;;;;;;-8.66;75.07;96903.56;6148281;29;20059;-69
2022/10/30 00:20:44;;;;;;;6.70;3.30;;;;;;;-8.61;74.79;96902.75;6147244;28;20133;-70
2022/10/30 00:23:50;;;;;;;8.27;3.83;;;;;;;-8.62;74.91;96897.66;6157945;28;20469;-70
2022/10/30 00:26:57;;;;;;;6.20;3.10;;;;;;;-8.68;74.91;96898.47;6147749;28;20527;-69
2022/10/30 00:30:03;;;;;;;10.02;3.97;;;;;;;-8.71;75.23;96898.44;6145562;28;20517;-70
2022/10/30 00:33:06;;;;;;;9.90;3.33;;;;;;;-8.69;75.47;96886.56;6126324;29;20048;-69
2022/10/30 00:36:07;;;;;;;4.07;3.10;;;;;;;-8.60;75.47;96889.19;6148801;28;20036;-70
2022/10/30 00:39:11;;;;;;;16.42;3.53;;;;;;;-8.54;75.10;96890.09;6148786;28;20058;-70
2022/10/30 00:42:15;;;;;;;12.40;3.50;;;;;;;-8.61;74.54;96887.47;6151630;28;20050;-69
2022/10/30 00:45:20;;;;;;;10.60;4.07;;;;;;;-8.63;74.87;96893.41;6160032;28;20129;-69
2022/10/30 00:48:25;;;;;;;12.02;5.68;;;;;;;-8.60;74.94;96891.75;6154003;28;20047;-69
2022/10/30 00:51:36;;;;;;;21.67;5.30;;;;;;;-8.64;75.01;96878.94;6154787;28;20422;-71
2022/10/30 00:54:37;;;;;;;14.07;3.75;;;;;;;-8.47;74.48;96881.66;6144058;28;20050;-69
2022/10/30 00:57:40;;;;;;;10.15;2.90;;;;;;;-8.61;74.35;96879.81;6151415;28;20489;-70
2022/10/30 01:00:47;;;;;;;11.67;4.20;;;;;;;-8.75;74.92;96863.50;6157428;28;20043;-69
2022/10/30 01:03:55;;;;;;;17.30;3.92;;;;;;;-8.79;74.61;96864.34;6150655;28;20533;-69
2022/10/30 01:06:57;;;;;;;8.40;2.85;;;;;;;-8.76;74.70;96861.81;6157388;28;20513;-70
2022/10/30 01:10:00;;;;;;;9.88;3.90;;;;;;;-8.84;74.86;96864.28;6158165;28;20055;-70
2022/10/30 01:13:04;;;;;;;7.93;3.40;;;;;;;-8.80;74.80;96867.72;6154175;28;20039;-70
2022/10/30 01:16:29;;;;;;;6.03;3.00;;;;;;;-8.91;74.79;96848.91;6160572;28;20047;-69
2022/10/30 01:20:12;;;;;;;8.15;3.10;;;;;;;-8.88;74.97;96854.03;6141552;28;20054;-70
2022/10/30 01:23:16;;;;;;;7.57;3.47;;;;;;;-8.95;74.86;96852.25;6146709;28;20116;-69
2022/10/30 01:26:42;;;;;;;7.43;3.60;;;;;;;-9.06;75.00;96850.47;6158284;28;20111;-70
2022/10/30 01:30:00;;;;;;;5.43;3.03;;;;;;;-9.07;74.71;96860.63;6159990;28;20046;-70
2022/10/30 01:33:13;;;;;;;4.50;2.40;;;;;;;-9.14;74.99;96846.97;6158199;28;20039;-69
2022/10/30 01:36:37;;;;;;;6.60;3.35;;;;;;;-9.21;74.71;96841.75;6157984;28;20034;-70
2022/10/30 01:39:40;;;;;;;7.80;3.60;;;;;;;-9.28;74.99;96838.31;6161652;28;20137;-70
2022/10/30 01:42:48;;;;;;;6.30;3.15;;;;;;;-9.29;74.63;96842.50;6160705;28;20034;-70
2022/10/30 01:46:14;;;;;;;6.03;3.70;;;;;;;-9.41;74.76;96842.38;6159809;28;20039;-70
2022/10/30 01:49:43;;;;;;;7.22;4.15;;;;;;;-9.58;74.77;96838.75;6139625;28;20051;-70
2022/10/30 01:53:23;;;;;;;6.82;3.80;;;;;;;-9.64;75.09;96836.13;6155432;28;20042;-69
2022/10/30 01:56:30;;;;;;;7.65;4.38;;;;;;;-9.66;75.15;96841.19;6156193;28;20141;-70
2022/10/30 01:59:31;;;;;;;8.15;4.13;;;;;;;-9.70;75.11;96825.88;6165660;28;20501;-69
2022/10/30 02:02:40;;;;;;;10.20;4.88;;;;;;;-9.76;75.12;96830.06;6155740;28;20065;-69
2022/10/30 02:05:51;;;;;;;6.63;3.70;;;;;;;-9.72;74.90;96820.75;6154843;28;20044;-69
2022/10/30 02:08:57;;;;;;;5.47;3.47;;;;;;;-9.69;74.86;96823.34;6159462;28;20043;-70
2022/10/30 02:12:02;;;;;;;5.88;3.40;;;;;;;-9.66;74.92;96825.06;6156858;28;20137;-69
2022/10/30 02:15:06;;;;;;;5.65;3.30;;;;;;;-9.70;74.71;96819.09;6158526;28;20062;-69
2022/10/30 02:18:08;;;;;;;9.25;3.75;;;;;;;-9.72;74.76;96815.66;6154422;28;20043;-68
2022/10/30 02:21:12;;;;;;;5.30;3.45;;;;;;;-9.78;74.56;96815.59;6147259;28;20043;-70
2022/10/30 02:24:14;;;;;;;4.15;2.80;;;;;;;-9.82;74.76;96798.53;6149211;28;20041;-70
2022/10/30 02:27:16;;;;;;;6.55;3.47;;;;;;;-9.89;74.41;96796.75;6154746;28;20386;-69
2022/10/30 02:30:20;;;;;;;6.03;3.70;;;;;;;-9.96;74.73;96796.69;6161512;28;20043;-70
2022/10/30 02:33:24;;;;;;;4.85;3.30;;;;;;;-9.96;74.86;96795.84;6153620;28;20046;-69
2022/10/30 02:36:27;;;;;;;7.55;3.60;;;;;;;-9.97;75.00;96784.78;6152848;28;20046;-69
2022/10/30 02:39:32;;;;;;;7.75;3.40;;;;;;;-9.96;75.00;96783.97;6160737;28;20066;-69
2022/10/30 02:42:34;;;;;;;5.22;3.42;;;;;;;-9.94;74.99;96774.63;6158622;28;20134;-70
2022/10/30 02:45:37;;;;;;;7.28;3.35;;;;;;;-9.94;74.98;96774.63;6146730;28;20421;-69
2022/10/30 02:48:41;;;;;;;6.78;3.58;;;;;;;-9.96;75.04;96781.41;6146314;28;20047;-70
2022/10/30 02:51:45;;;;;;;6.90;3.85;;;;;;;-10.04;74.89;96762.63;6158867;28;20096;-70
2022/10/30 02:54:47;;;;;;;6.95;3.63;;;;;;;-9.88;74.95;96767.91;6155947;28;20158;-70
2022/10/30 02:57:48;;;;;;;7.78;4.00;;;;;;;-9.84;74.86;96756.97;6157951;28;20037;-68
2022/10/30 03:00:52;;;;;;;9.77;4.68;;;;;;;-9.84;74.77;96764.59;6156294;28;20031;-69
2022/10/30 03:03:54;;;;;;;6.00;3.38;;;;;;;-9.85;74.43;96767.94;6151513;28;20544;-69
2022/10/30 03:07:01;;;;;;;7.57;3.75;;;;;;;-9.76;74.62;96775.72;6160735;28;20043;-70
2022/10/30 03:10:02;;;;;;;7.80;3.72;;;;;;;-9.73;74.76;96768.13;6156326;28;20206;-70
2022/10/30 03:13:06;;;;;;;;;;;;;;;-9.78;74.33;96769.75;6142743;28;20506;-68
2022/10/30 03:16:11;;;;;;;6.32;3.65;;;;;;;-9.82;74.18;96768.00;6147918;29;20029;-68
2022/10/30 03:19:16;;;;;;;6.60;3.92;;;;;;;-9.85;74.39;96770.50;6156077;28;20584;-69
2022/10/30 03:22:18;;;;;;;8.15;3.75;;;;;;;-9.86;74.61;96766.25;6155869;28;20533;-70
2022/10/30 03:25:22;;;;;;;8.68;4.53;;;;;;;-9.83;74.51;96753.56;6159909;28;20141;-69
2022/10/30 03:28:28;;;;;;;9.80;4.38;;;;;;;-9.78;74.38;96764.66;6155434;28;20047;-68
2022/10/30 03:31:31;;;;;;;7.97;3.92;;;;;;;-9.68;74.55;96758.88;6146270;28;20536;-70
2022/10/30 03:34:34;;;;;;;7.80;4.07;;;;;;;-9.57;74.22;96754.72;6151213;28;20047;-69
2022/10/30 03:37:36;;;;;;;7.55;4.18;;;;;;;-9.55;74.40;96747.97;6158387;28;20059;-69
2022/10/30 03:40:38;;;;;;;6.47;4.35;;;;;;;-9.46;74.27;96743.81;6152645;28;20138;-69
2022/10/30 03:43:48;;;;;;;7.55;4.30;;;;;;;-9.39;74.24;96748.16;6156077;28;20082;-69
2022/10/30 03:46:52;;;;;;;8.75;4.30;;;;;;;-9.31;74.04;96741.44;6147925;28;20046;-68
2022/10/30 03:49:54;;;;;;;11.02;5.15;;;;;;;-9.23;74.11;96741.50;6154472;28;20106;-72
2022/10/30 03:52:57;;;;;;;7.88;4.25;;;;;;;-9.19;73.80;96748.34;6153821;28;20414;-69
2022/10/30 03:56:03;;;;;;;7.17;3.80;;;;;;;-9.17;73.71;96745.00;6161822;28;20078;-71
2022/10/30 03:59:07;;;;;;;8.68;4.35;;;;;;;-9.16;73.63;96736.50;6150713;28;20053;-70
2022/10/30 04:02:13;;;;;;;7.45;3.88;;;;;;;-9.07;73.38;96745.91;6160344;28;20446;-70
2022/10/30 04:05:17;;;;;;;7.47;3.75;;;;;;;-8.99;73.45;96738.34;6146138;28;20396;-70
2022/10/30 04:08:18;;;;;;;8.88;3.75;;;;;;;-8.95;73.30;96734.97;6148649;28;20049;-70
2022/10/30 04:11:24;;;;;;;8.20;4.25;;;;;;;-8.90;72.83;96729.06;6147159;28;20051;-69
2022/10/30 04:14:29;;;;;;;9.68;4.45;;;;;;;-8.87;73.27;96734.19;6150972;28;20522;-69
2022/10/30 04:17:33;;;;;;;8.63;4.35;;;;;;;-8.81;73.25;96733.41;6150744;28;20054;-70
2022/10/30 04:20:38;;;;;;;8.63;4.03;;;;;;;-8.70;72.88;96730.94;6148128;28;20043;-70
2022/10/30 04:23:40;;;;;;;6.72;3.50;;;;;;;-8.56;73.04;96733.59;6147969;28;20074;-70
2022/10/30 04:26:45;;;;;;;7.55;4.07;;;;;;;-8.51;72.46;96734.50;6148760;28;20051;-70
2022/10/30 04:29:48;;;;;;;7.30;4.63;;;;;;;-8.44;72.68;96728.56;6143476;28;20189;-70
2022/10/30 04:32:54;;;;;;;8.90;4.75;;;;;;;-8.35;72.48;96731.16;6155542;28;20051;-69
2022/10/30 04:35:56;;;;;;;8.50;4.43;;;;;;;-8.26;72.26;96728.69;6145441;28;20046;-69
2022/10/30 04:39:01;;;;;;;11.88;4.90;;;;;;;-8.11;71.98;96721.97;6156606;28;20046;-71
2022/10/30 04:42:03;;;;;;;11.23;4.88;;;;;;;-8.05;71.92;96721.97;6152484;28;20189;-69
2022/10/30 04:45:05;;;;;;;8.48;4.15;;;;;;;-7.85;71.37;96715.28;6154970;28;20053;-70
2022/10/30 04:48:14;;;;;;;11.50;4.53;;;;;;;-7.79;71.87;96730.63;6151096;28;20690;-71
2022/10/30 04:51:22;;;;;;;7.82;3.88;;;;;;;-7.59;70.91;96727.28;6154358;28;20047;-70
2022/10/30 04:54:23;;;;;;;8.07;4.80;;;;;;;-7.31;70.63;96723.97;6150912;28;20035;-69
2022/10/30 04:57:30;;;;;;;9.32;4.43;;;;;;;-7.21;70.93;96718.91;6149598;28;20453;-69
2022/10/30 05:00:39;;;;;;;8.40;4.65;;;;;;;-7.25;70.88;96723.97;6149111;28;20510;-70
2022/10/30 05:03:40;;;;;;;10.38;5.13;;;;;;;-7.09;70.69;96713.81;6161380;28;20046;-70
2022/10/30 05:06:47;;;;;;;9.05;3.88;;;;;;;-6.91;71.42;96729.16;6161801;28;20035;-70
2022/10/30 05:09:49;;;;;;;7.40;4.18;;;;;;;-3.56;68.85;96711.97;6148210;28;20142;-70
2022/10/30 05:12:53;;;;;;;7.50;4.45;;;;;;;1.05;59.15;96715.28;6139018;28;20054;-70
2022/10/30 05:16:00;;;;;;;6.85;3.78;;;;;;;5.48;50.39;96704.34;6154788;28;20051;-70
2022/10/30 05:19:06;;;;;;;7.32;4.03;;;;;;;8.27;42.40;96695.72;6152388;28;20047;-70
2022/10/30 05:22:10;;;;;;;4.88;3.70;;;;;;;10.67;39.87;96707.81;6157041;28;20047;-70
2022/10/30 05:25:14;;;;;;;5.45;3.22;;;;;;;12.37;36.69;96702.78;6145755;28;20035;-70
2022/10/30 05:28:16;;;;;;;5.05;3.50;;;;;;;13.93;34.99;96706.47;6155483;28;20062;-71
2022/10/30 05:31:19;;;;;;;5.72;3.25;;;;;;;15.63;31.72;96704.53;6148961;28;20043;-70
2022/10/30 05:34:25;;;;;;;6.82;2.97;;;;;;;17.25;29.23;96704.00;6158624;28;20493;-72
2022/10/30 05:37:31;;;;;;;3.60;2.33;;;;;;;18.91;26.85;96698.47;6161058;28;20035;-71
2022/10/30 05:40:33;;;;;;;;;;;;;;;20.79;27.31;96701.88;6159714;28;20141;-72
2022/10/30 05:43:37;;;;;;;2.50;2.10;;;;;;;20.93;24.77;96689.69;6155810;28;19922;-72
2022/10/30 05:46:41;;;;;;;3.45;2.65;;;;;;;21.59;23.08;96682.38;6142831;28;20086;-70
2022/10/30 05:49:44;;;;;;;2.75;2.22;;;;;;;22.21;22.01;96686.94;6148384;28;20058;-70
2022/10/30 05:52:47;;;;;;;2.67;2.05;;;;;;;23.60;19.84;96683.91;6140420;28;20035;-71
2022/10/30 05:55:58;;;;;;;4.53;2.28;;;;;;;24.51;18.19;96678.19;6147542;28;20105;-71
2022/10/30 05:59:07;;;;;;;3.58;2.30;;;;;;;25.16;17.83;96674.44;6153179;28;20042;-73
2022/10/30 06:02:36;;;;;;;2.63;2.08;;;;;;;25.71;17.05;96656.56;6134461;28;20047;-71
2022/10/30 06:05:43;;;;;;;3.92;2.45;;;;;;;26.00;16.42;96659.19;6152457;28;20062;-66
2022/10/30 06:08:50;;;;;;;4.22;2.58;;;;;;;26.41;15.79;96657.25;6149871;28;20082;-66
2022/10/30 06:11:55;;;;;;;4.85;2.80;;;;;;;26.63;15.17;96654.38;6158881;28;20525;-66
2022/10/30 06:14:58;;;;;;;6.05;2.80;;;;;;;26.61;15.10;96645.66;6152949;28;20050;-66
2022/10/30 06:18:00;;;;;;;4.78;2.65;;;;;;;26.57;14.83;96645.25;6158711;28;20062;-67
2022/10/30 06:21:07;;;;;;;3.80;3.40;;;;;;;26.87;14.36;96639.47;6156726;28;20046;-75
2022/10/30 06:24:15;;;;;;;5.22;3.72;;;;;;;27.07;14.10;96639.47;6146450;28;21764;-66
2022/10/30 06:27:17;;;;;;;6.25;4.07;;;;;;;27.57;13.80;96644.38;6145081;28;20134;-68
2022/10/30 06:30:24;;;;;;;5.70;4.00;;;;;;;27.51;13.57;96637.94;6148444;28;20038;-66
2022/10/30 06:33:32;;;;;;;4.28;3.30;;;;;;;27.23;13.35;96633.66;6147252;28;20039;-66
2022/10/30 06:36:35;;;;;;;4.30;3.00;;;;;;;27.62;13.42;96622.94;6145481;28;20035;-66
2022/10/30 06:39:42;;;;;;;8.02;4.40;;;;;;;28.64;12.76;96618.50;6141182;28;20486;-66
2022/10/30 06:42:50;;;;;;;9.45;4.78;;;;;;;29.43;11.98;96624.28;6149685;28;20040;-69
2022/10/30 06:45:59;;;;;;;7.70;4.32;;;;;;;29.33;11.79;96632.94;6158659;28;20066;-68
2022/10/30 06:49:02;;;;;;;8.95;5.78;;;;;;;29.06;12.68;96629.63;6142076;28;20486;-68
2022/10/30 06:52:06;;;;;;;9.05;6.28;;;;;;;27.85;12.67;96630.56;6129036;28;20051;-69
2022/10/30 06:55:09;;;;;;;10.25;7.07;;;;;;;28.28;12.41;96624.53;6139091;28;20039;-69
2022/10/30 06:58:10;;;;;;;;;;;;;;;30.85;12.56;96624.72;6134087;28;20055;-67
2022/10/30 07:01:16;;;;;;;9.63;6.32;;;;;;;30.61;11.58;96625.72;6133416;28;19923;-68
2022/10/30 07:04:21;;;;;;;8.75;6.88;;;;;;;28.17;12.46;96612.53;6141357;28;20426;-67
2022/10/30 07:07:26;;;;;;;9.20;5.60;;;;;;;24.80;14.98;96607.28;6130564;28;20054;-67
2022/10/30 07:10:30;;;;;;;7.78;6.00;;;;;;;24.80;14.82;96599.22;6137502;28;20043;-74
2022/10/30 07:13:38;;;;;;;4.93;3.85;;;;;;;25.56;14.52;96566.09;6141922;28;20498;-68
2022/10/30 07:16:40;;;;;;;5.93;4.38;;;;;;;26.41;14.02;96597.91;6136022;28;20039;-68
2022/10/30 07:19:42;;;;;;;6.25;4.07;;;;;;;27.90;13.17;96606.44;6136960;28;20051;-68
2022/10/30 07:22:47;;;;;;;4.60;4.10;;;;;;;26.99;13.30;96599.16;6135548;28;20445;-69
2022/10/30 07:25:49;;;;;;;6.38;3.33;;;;;;;24.33;15.63;96597.94;6139132;28;20047;-78
2022/10/30 07:28:50;;;;;;;4.53;3.15;;;;;;;22.33;17.17;96578.31;6142758;28;20418;-77
2022/10/30 07:31:59;;;;;;;4.05;3.38;;;;;;;19.83;19.68;96576.88;6144433;28;20042;-77
2022/10/30 07:35:01;;;;;;;3.97;2.90;;;;;;;18.22;20.98;96567.69;6152959;28;20047;-76
2022/10/30 07:38:08;;;;;;;5.22;3.95;;;;;;;17.82;21.37;96579.66;6160567;28;20190;-76
2022/10/30 07:41:16;;;;;;;5.68;3.80;;;;;;;17.27;22.03;96566.44;6147554;28;20042;-75
2022/10/30 07:44:21;;;;;;;4.97;4.03;;;;;;;16.69;22.81;96559.50;6160191;28;20401;-75
2022/10/30 07:47:26;;;;;;;3.67;3.00;;;;;;;16.91;22.36;96520.31;6141424;28;20040;-67
2022/10/30 07:50:34;;;;;;;4.97;3.22;;;;;;;15.47;24.00;96556.53;6137300;28;20035;-72
2022/10/30 07:53:39;;;;;;;6.72;3.95;;;;;;;14.56;25.38;96545.09;6132265;28;20627;-70
2022/10/30 07:56:41;;;;;;;6.72;4.05;;;;;;;14.19;25.81;96550.03;6119687;28;20058;-72
2022/10/30 07:59:42;;;;;;;6.82;4.88;;;;;;;15.76;24.52;96539.81;6130172;28;20501;-70
2022/10/30 08:02:55;;;;;;;9.88;5.72;;;;;;;16.35;23.63;96540.59;6136253;28;20043;-70
2022/10/30 08:06:04;;;;;;;5.97;4.25;;;;;;;15.13;24.39;96495.09;6140068;28;20535;-71
2022/10/30 08:09:08;;;;;;;11.13;5.32;;;;;;;15.02;24.84;96524.34;6133197;28;20039;-72
2022/10/30 08:12:12;;;;;;;7.05;4.45;;;;;;;15.82;23.97;96522.50;6142755;28;20525;-69
2022/10/30 08:15:14;;;;;;;5.47;3.38;;;;;;;18.92;20.75;96516.22;6129321;28;20128;-69
2022/10/30 08:18:15;;;;;;;5.30;3.75;;;;;;;19.59;19.92;96519.75;6136980;28;20062;-71
2022/10/30 08:21:19;;;;;;;5.43;3.78;;;;;;;18.34;21.06;96521.22;6127366;28;20047;-72
2022/10/30 08:24:29;;;;;;;6.13;3.47;;;;;;;18.61;21.29;96506.03;6134066;28;20509;-70
2022/10/30 08:27:32;;;;;;;5.32;4.10;;;;;;;20.12;19.81;96496.25;6153238;28;20035;-69
2022/10/30 08:30:37;;;;;;;7.75;4.07;;;;;;;20.36;19.34;96508.78;6147009;28;20129;-68
2022/10/30 08:33:39;;;;;;;4.60;3.70;;;;;;;19.42;20.02;96488.66;6137697;28;20062;-68
2022/10/30 08:36:41;;;;;;;4.25;3.47;;;;;;;19.16;20.42;96494.13;6141014;28;20054;-68
2022/10/30 08:39:47;;;;;;;4.78;3.42;;;;;;;19.63;20.42;96490.88;6136832;28;20066;-69
2022/10/30 08:42:55;;;;;;;3.65;3.08;;;;;;;20.52;19.30;96491.84;6137670;28;20035;-69
2022/10/30 08:46:04;;;;;;;4.93;3.50;;;;;;;20.94;18.93;96456.81;6137729;28;20436;-69
2022/10/30 08:49:07;;;;;;;4.18;3.03;;;;;;;21.59;18.16;96489.59;6138832;28;20515;-68
2022/10/30 08:52:09;;;;;;;3.65;2.78;;;;;;;22.22;17.94;96480.41;6144481;28;20503;-68
2022/10/30 08:55:13;;;;;;;7.00;3.00;;;;;;;21.95;17.95;96474.59;6139939;28;20182;-69
2022/10/30 08:58:17;;;;;;;4.03;3.10;;;;;;;21.18;18.40;96479.94;6145305;28;20059;-68
2022/10/30 09:01:21;;;;;;;4.82;3.67;;;;;;;19.95;19.13;96474.06;6148300;28;20055;-67
2022/10/30 09:04:30;;;;;;;4.43;3.17;;;;;;;18.96;20.25;96466.88;6148477;28;20134;-68
2022/10/30 09:07:35;;;;;;;4.50;3.20;;;;;;;18.54;20.58;96465.00;6157351;28;20059;-68
2022/10/30 09:10:40;;;;;;;2.95;2.30;;;;;;;17.58;20.82;96443.69;6158651;28;20101;-67
2022/10/30 09:13:44;;;;;;;3.88;3.20;;;;;;;16.78;22.22;96446.22;6147241;29;20533;-67
2022/10/30 09:16:52;;;;;;;4.47;2.40;;;;;;;16.66;22.77;96444.75;6127755;28;20043;-67
2022/10/30 09:19:59;;;;;;;5.50;3.22;;;;;;;16.94;22.57;96427.81;6124847;29;20138;-67
2022/10/30 09:23:04;;;;;;;4.72;2.78;;;;;;;17.87;21.82;96439.00;6124923;28;20054;-68
2022/10/30 09:26:11;;;;;;;4.15;2.75;;;;;;;18.03;21.67;96427.63;6140684;29;20039;-68
2022/10/30 09:29:19;;;;;;;4.10;2.85;;;;;;;17.71;21.66;96428.19;6147927;28;20079;-68
2022/10/30 09:32:28;;;;;;;4.22;2.75;;;;;;;17.66;21.57;96430.47;6152635;29;20043;-69
2022/10/30 09:35:35;;;;;;;4.30;2.40;;;;;;;18.04;21.04;96415.16;6152368;28;20047;-68
2022/10/30 09:38:40;;;;;;;3.10;2.47;;;;;;;18.38;20.68;96426.66;6152450;28;20057;-68
2022/10/30 09:42:06;;;;;;;4.38;3.00;;;;;;;16.03;23.08;96414.41;6145075;28;20502;-67
2022/10/30 09:45:32;;;;;;;3.30;2.38;;;;;;;12.86;27.01;96403.31;6140147;28;20039;-72
2022/10/30 09:48:46;;;;;;;3.38;2.80;;;;;;;10.28;30.51;96401.84;6140641;28;20044;-69
2022/10/30 09:52:22;;;;;;;3.88;3.25;;;;;;;8.95;32.78;96397.84;6144759;28;20043;-69
2022/10/30 09:55:44;;;;;;;3.97;3.15;;;;;;;8.40;34.34;96389.13;6141741;28;20140;-69
2022/10/30 09:59:01;;;;;;;4.05;3.13;;;;;;;8.20;34.99;96394.75;6136506;28;20043;-68
2022/10/30 10:02:19;;;;;;;3.83;2.92;;;;;;;7.81;35.71;96398.91;6139846;28;20474;-68
2022/10/30 10:05:52;;;;;;;5.40;3.78;;;;;;;7.41;36.25;96396.94;6141460;28;20035;-68
2022/10/30 10:09:13;;;;;;;5.35;2.95;;;;;;;7.17;36.83;96394.00;6141986;28;20047;-68
2022/10/30 10:12:29;;;;;;;6.28;2.83;;;;;;;6.83;37.60;96407.38;6153730;28;20063;-66
2022/10/30 10:15:39;;;;;;;2.35;1.77;;;;;;;6.52;38.43;96407.34;6145861;28;20138;-68
2022/10/30 10:18:59;;;;;;;5.78;3.25;;;;;;;5.82;39.51;96395.50;6142721;28;20060;-67
2022/10/30 10:22:13;;;;;;;6.80;4.18;;;;;;;5.53;40.81;96394.44;6140958;28;20039;-69
2022/10/30 10:25:19;;;;;;;5.25;3.75;;;;;;;5.42;41.12;96396.75;6141971;28;20181;-70
2022/10/30 10:29:01;;;;;;;5.43;3.38;;;;;;;5.32;41.34;96389.41;6139908;28;20039;-68
2022/10/30 10:32:29;;;;;;;11.10;5.22;;;;;;;5.04;42.10;96386.50;6140411;28;20131;-68
2022/10/30 10:36:04;;;;;;;5.07;3.25;;;;;;;4.85;42.52;96377.00;6141599;28;21468;-68
2022/10/30 10:39:31;;;;;;;4.68;2.80;;;;;;;4.89;42.76;96378.53;6142929;28;20047;-69
2022/10/30 10:42:56;;;;;;;4.50;2.97;;;;;;;5.01;43.31;96384.06;6139539;28;20043;-70
2022/10/30 10:46:34;;;;;;;3.47;2.10;;;;;;;5.15;43.11;96378.97;6139253;28;20129;-69
2022/10/30 10:50:10;;;;;;;3.83;2.70;;;;;;;4.93;43.52;96376.63;6140143;28;20410;-71
2022/10/30 10:53:45;;;;;;;3.60;2.45;;;;;;;4.83;43.71;96371.03;6139380;28;20043;-69
2022/10/30 10:56:51;;;;;;;5.45;3.03;;;;;;;4.70;44.07;96373.41;6136081;28;20535;-70
2022/10/30 11:00:12;;;;;;;5.53;3.45;;;;;;;4.61;44.58;96373.00;6158887;28;20641;-67
2022/10/30 11:03:24;;;;;;;5.57;2.75;;;;;;;4.70;44.83;96362.16;6159650;28;20128;-67
2022/10/30 11:06:37;;;;;;;9.07;5.18;;;;;;;4.49;45.27;96364.88;6155838;28;20038;-68
2022/10/30 11:09:42;;;;;;;5.57;3.22;;;;;;;4.59;45.58;96361.84;6146987;28;20055;-69
2022/10/30 11:12:46;;;;;;;4.70;3.05;;;;;;;4.67;46.10;96357.94;6157693;28;20047;-70
2022/10/30 11:16:23;;;;;;;3.03;2.47;;;;;;;4.85;45.75;96366.59;6158240;28;20046;-68
2022/10/30 11:19:30;;;;;;;5.70;2.95;;;;;;;4.58;45.85;96357.53;6113094;28;20326;-67
2022/10/30 11:22:39;;;;;;;4.28;2.92;;;;;;;4.31;45.80;96342.34;6152011;28;20042;-68
2022/10/30 11:25:44;;;;;;;3.78;2.85;;;;;;;4.28;45.80;96342.50;6159521;28;20043;-69
2022/10/30 11:28:58;;;;;;;4.88;2.80;;;;;;;4.22;45.77;96348.00;6137244;28;20476;-67
2022/10/30 11:32:04;;;;;;;5.28;3.50;;;;;;;4.18;45.29;96349.03;6158028;28;20180;-68
2022/10/30 11:35:10;;;;;;;3.72;3.10;;;;;;;4.14;45.23;96355.34;6156079;28;20409;-67
2022/10/30 11:38:21;;;;;;;5.50;2.95;;;;;;;4.26;44.96;96354.72;6152315;28;20030;-68
2022/10/30 11:41:26;;;;;;;3.45;2.30;;;;;;;4.12;44.63;96344.97;6149572;28;20046;-68
2022/10/30 11:44:37;;;;;;;9.25;4.20;;;;;;;4.11;45.09;96347.66;6138023;28;20039;-67
2022/10/30 11:47:42;;;;;;;10.25;4.80;;;;;;;4.02;45.59;96338.53;6137908;28;20137;-68
2022/10/30 11:50:49;;;;;;;11.27;6.32;;;;;;;3.82;45.99;96352.44;6137174;28;20047;-68
2022/10/30 11:53:53;;;;;;;8.75;3.85;;;;;;;3.74;46.19;96336.38;6139043;28;20043;-68
2022/10/30 11:56:59;;;;;;;4.95;2.78;;;;;;;3.80;46.08;96349.09;6142719;28;20043;-68
2022/10/30 12:00:20;;;;;;;6.43;3.58;;;;;;;3.60;46.53;96340.44;6141734;28;20046;-68
2022/10/30 12:03:35;;;;;;;5.25;3.70;;;;;;;3.54;46.75;96348.53;6144600;28;20130;-69
2022/10/30 12:06:39;;;;;;;4.45;2.22;;;;;;;3.54;46.60;96348.53;6145259;28;20039;-68
2022/10/30 12:09:45;;;;;;;9.25;4.10;;;;;;;3.38;46.87;96348.38;6135698;28;20525;-66
2022/10/30 12:12:50;;;;;;;6.75;3.47;;;;;;;3.32;47.04;96347.81;6135866;28;20517;-68
2022/10/30 12:16:18;;;;;;;5.18;3.03;;;;;;;3.19;47.37;96342.28;6140783;28;20048;-69
2022/10/30 12:19:22;;;;;;;2.58;1.83;;;;;;;3.15;47.68;96341.59;6143104;28;20043;-72
2022/10/30 12:22:30;;;;;;;5.03;2.55;;;;;;;2.93;47.85;96348.63;6134153;28;20465;-70
2022/10/30 12:25:35;;;;;;;3.63;2.25;;;;;;;2.95;48.14;96338.19;6147944;28;21353;-74
2022/10/30 12:28:38;;;;;;;4.85;2.42;;;;;;;2.92;48.57;96328.78;6135805;28;20478;-70
2022/10/30 12:31:45;;;;;;;5.10;3.22;;;;;;;2.77;48.45;96332.84;6148992;28;20055;-71
2022/10/30 12:34:56;;;;;;;6.20;3.08;;;;;;;2.75;48.54;96326.06;6159465;28;20532;-71
2022/10/30 12:38:05;;;;;;;9.93;2.33;;;;;;;2.77;48.55;96340.63;6149203;28;20491;-71
2022/10/30 12:41:12;;;;;;;3.25;2.22;;;;;;;2.81;48.38;96333.59;6150056;28;20046;-70
2022/10/30 12:44:25;;;;;;;2.90;2.03;;;;;;;2.65;48.83;96320.38;6147453;28;20286;-71
2022/10/30 12:47:40;;;;;;;4.68;3.15;;;;;;;2.57;48.83;96315.50;6151842;28;20425;-71
2022/10/30 12:50:51;;;;;;;6.13;3.10;;;;;;;2.48;49.32;96298.56;6147787;28;20051;-70
2022/10/30 12:54:07;;;;;;;3.50;2.08;;;;;;;2.60;49.14;96296.34;6147006;28;20394;-70
2022/10/30 12:57:16;;;;;;;4.85;2.17;;;;;;;2.62;48.88;96305.78;6140825;28;20047;-67
2022/10/30 13:00:24;;;;;;;3.63;2.42;;;;;;;2.55;48.88;96293.97;6144516;28;20490;-71
2022/10/30 13:03:45;;;;;;;4.65;3.08;;;;;;;2.63;48.79;96299.69;6145498;28;20042;-70
2022/10/30 13:07:05;;;;;;;5.07;3.05;;;;;;;2.69;48.51;96295.97;6149335;28;20051;-70
2022/10/30 13:10:27;;;;;;;6.40;3.67;;;;;;;2.53;48.76;96310.53;6146080;28;20062;-71
2022/10/30 13:13:35;;;;;;;4.00;2.10;;;;;;;2.57;48.23;96302.53;6143935;28;20054;-72
2022/10/30 13:16:39;;;;;;;2.58;2.03;;;;;;;2.41;48.51;96285.91;6147671;28;20043;-69
2022/10/30 13:19:44;;;;;;;1.88;1.55;;;;;;;2.32;49.02;96286.28;6144894;28;20506;-69
2022/10/30 13:23:08;;;;;;;2.83;1.98;;;;;;;2.28;49.67;96287.31;6148870;28;20039;-71
2022/10/30 13:26:23;;;;;;;4.53;2.50;;;;;;;2.18;50.30;96292.03;6148372;28;20145;-66
2022/10/30 13:29:27;;;;;;;3.67;2.53;;;;;;;2.33;51.05;96293.19;6147823;28;20427;-71
2022/10/30 13:32:51;;;;;;;5.15;3.20;;;;;;;2.25;51.55;96286.53;6155506;28;20074;-70
2022/10/30 13:35:54;;;;;;;4.40;3.35;;;;;;;2.33;51.67;96306.16;6155553;28;20591;-69
2022/10/30 13:39:27;;;;;;;12.10;6.22;;;;;;;2.34;51.87;96310.44;6154858;28;20090;-68
2022/10/30 13:43:06;;;;;;;12.57;3.72;;;;;;;2.28;51.70;96318.47;6147634;28;20174;-68
2022/10/30 13:46:13;;;;;;;10.45;5.10;;;;;;;2.22;52.19;96317.81;6151108;28;20051;-69
2022/10/30 13:49:26;;;;;;;7.70;4.20;;;;;;;2.13;52.58;96323.38;6145879;28;20417;-70
2022/10/30 13:52:39;;;;;;;4.68;2.33;;;;;;;2.06;52.12;96303.75;6160876;28;20082;-70
2022/10/30 13:55:45;;;;;;;3.78;2.67;;;;;;;2.05;52.46;96309.03;6164947;28;20043;-70
2022/10/30 13:59:16;;;;;;;2.65;1.48;;;;;;;2.13;52.09;96307.81;6148244;28;20043;-65
2022/10/30 14:02:32;;;;;;;5.60;3.10;;;;;;;2.02;51.99;96307.41;6148093;28;20267;-67
2022/10/30 14:06:15;;;;;;;4.28;2.55;;;;;;;2.03;52.11;96311.69;6144824;28;20083;-66
2022/10/30 14:09:44;;;;;;;4.93;2.67;;;;;;;2.12;51.77;96302.66;6146053;28;20055;-64
2022/10/30 14:13:06;;;;;;;5.32;2.95;;;;;;;2.09;51.94;96301.03;6152958;28;20200;-68
2022/10/30 14:16:33;;;;;;;5.32;2.83;;;;;;;2.09;52.31;96295.84;6151821;28;20051;-67
2022/10/30 14:20:06;;;;;;;3.67;2.60;;;;;;;1.98;52.76;96291.13;6156693;28;20043;-66
2022/10/30 14:23:22;;;;;;;5.85;3.10;;;;;;;2.11;53.48;96283.66;6155772;28;20086;-67
2022/10/30 14:26:28;;;;;;;5.78;3.50;;;;;;;1.99;53.68;96291.97;6154321;28;20043;-66
2022/10/30 14:29:33;;;;;;;5.50;2.42;;;;;;;1.87;54.19;96275.13;6150209;28;20055;-61
2022/10/30 14:32:38;;;;;;;4.80;3.13;;;;;;;1.88;53.83;96273.38;6135623;29;20543;-61
2022/10/30 14:35:41;;;;;;;4.65;3.35;;;;;;;1.95;53.60;96270.50;6132824;28;20130;-62
2022/10/30 14:39:11;;;;;;;5.07;3.03;;;;;;;1.94;53.55;96267.94;6136919;28;20063;-62
2022/10/30 14:42:35;;;;;;;4.68;3.03;;;;;;;1.99;53.51;96263.41;6161971;28;20091;-61
2022/10/30 14:45:59;;;;;;;5.97;2.65;;;;;;;2.02;53.26;96260.69;6147151;28;20520;-62
2022/10/30 14:49:40;;;;;;;6.90;3.38;;;;;;;1.86;53.03;96254.44;6155640;28;20043;-61
2022/10/30 14:52:52;;;;;;;7.00;2.67;;;;;;;1.78;53.31;96250.41;6131993;29;20058;-63
2022/10/30 14:56:33;;;;;;;4.45;2.80;;;;;;;1.95;52.31;96235.88;6152400;28;20636;-61